x

9444090 - Port Angeles, Wa (ptaw1) Weather Station

12:30 - Fri 22nd Aug 2014 All times are PDT. -7 hours from GMT.

  • Wind
    9mph, 11mph gusts
  • Sea Temp 54°f
  • Air Temp 56°f
  • Sea Pressure 1016.1mb
  • 9444090 - Port Angeles, Wa
  • 9444090 - Port Angeles, Wa

More Historic Weather Station data

Upgrade to MSW Pro to gain access to the past 30 days of data for over 8000 Wavebouys and Weather Stations around the globe.

Join Pro

Comparision Forecast

View Surf forecast
   
ven. 08/22 12:30 9 11 mph 1016.1mb 54f 56f
12:24 10 14 mph 1016mb 54f 56f
12:18 8 11 mph 1016mb 54f 56f
12:12 5 6 mph 1016mb 54f 57f
12:06 2 7 mph 1015.9mb 53f 56f
12:00 5 7 mph 1015.9mb 53f 56f
jeu. 08/21 11:36 3 6 mph 1016mb 53f 57f
11:30  -  2 mph 1015.9mb 53f 57f
11:24 1 5 mph 1016mb 53f 57f
11:18 3 6 mph 1016.1mb 53f 57f
11:12 2 8 mph 1016.1mb 53f 57f
11:06 7 9 mph 1016mb 53f 58f
11:00 6 9 mph 1016.1mb 53f 58f
10:36 6 9 mph 1016.1mb 53f 58f
10:30 6 11 mph 1016.1mb 53f 58f
10:24 6 14 mph 1016.1mb 53f 58f
10:18 9 13 mph 1016.1mb 53f 58f
10:12 9 13 mph 1016.1mb 52f 57f
10:06 9 13 mph 1016mb 52f 57f
10:00 10 14 mph 1015.9mb 52f 57f
9:36 9 14 mph 1015.5mb 52f 58f
9:30 9 13 mph 1015.6mb 52f 58f
9:24 7 9 mph 1015.7mb 52f 58f
9:18 7 14 mph 1015.7mb 52f 58f
9:12 7 15 mph 1015.6mb 52f 58f
9:06 6 11 mph 1015.6mb 53f 58f
9:00 5 10 mph 1015.7mb 53f 58f
8:36 9 15 mph 1015.5mb 53f 59f
8:30 13 17 mph 1015.5mb 53f 59f
8:24 10 14 mph 1015.4mb 53f 59f
8:18 9 14 mph 1015.4mb 53f 60f
8:12 9 15 mph 1015.4mb 53f 59f
8:06 9 14 mph 1015.4mb 53f 60f
8:00 8 14 mph 1015.4mb 53f 60f
7:36 11 16 mph 1015.5mb 53f 61f
7:30 13 16 mph 1015.5mb 53f 61f
7:24 13 16 mph 1015.5mb 53f 61f
7:18 11 18 mph 1015.5mb 53f 61f
7:12 11 15 mph 1015.5mb 54f 61f
7:06 8 13 mph 1015.5mb 54f 60f
7:00 10 13 mph 1015.5mb 54f 59f
6:36 15 18 mph 1015.5mb 54f 57f
6:30 15 21 mph 1015.4mb 54f 58f
6:24 16 21 mph 1015.4mb 54f 58f
6:18 17 21 mph 1015.3mb 54f 58f
6:12 15 18 mph 1015.2mb 54f 58f
6:06 14 18 mph 1015.3mb 54f 58f
6:00 15 18 mph 1015.3mb 54f 58f
5:36 14 17 mph 1015.3mb 54f 58f
5:30 15 17 mph 1015.3mb 54f 58f
5:24 16 21 mph 1015.4mb 54f 57f
5:18 20 21 mph 1015.3mb 54f 58f
5:12 17 20 mph 1015.4mb 54f 58f
5:06 15 17 mph 1015.4mb 54f 58f
5:00 16 18 mph 1015.5mb 54f 59f
4:36 14 17 mph 1015.7mb 54f 58f
4:30 14 17 mph 1015.7mb 54f 58f
4:24 14 17 mph 1015.7mb 54f 57f
4:18 14 17 mph 1015.8mb 54f 58f
4:12 14 17 mph 1015.8mb 54f 58f
4:06 13 15 mph 1015.8mb 54f 57f
4:00 13 16 mph 1015.9mb 54f 57f
3:36 13 15 mph 1016mb 53f 58f
3:30 14 16 mph 1016mb 53f 58f
3:24 13 14 mph 1016.1mb 53f 58f
3:18 11 14 mph 1016.2mb 53f 58f
3:12 11 13 mph 1016.3mb 53f 58f
3:06 10 11 mph 1016.3mb 53f 58f
3:00 10 13 mph 1016.4mb 53f 57f
2:36 6 9 mph 1016.7mb 53f 57f
2:30 7 9 mph 1016.7mb 53f 57f
2:24 7 8 mph 1016.8mb 53f 57f
2:18 5 6 mph 1016.8mb 53f 57f
2:12 3 5 mph 1016.9mb 53f 57f
2:06 3
mph
1016.9mb 53f 57f
2:00 3
mph
1016.9mb 53f 58f
1:36 3 6 mph 1017mb 53f 56f
1:30 6
mph
1017mb 53f 56f
1:24 5 6 mph 1017.1mb 53f 56f
1:18 5 6 mph 1017.1mb 53f 56f
1:12 3 6 mph 1017mb 53f 56f
1:06 5 6 mph 1017mb 53f 56f
1:00 5 7 mph 1017mb 53f 56f
12:36 5 6 mph 1017.1mb 53f 60f
12:30 6 7 mph 1017.1mb 53f 60f
12:24 6 7 mph 1017.1mb 53f 61f
12:18 6
mph
1017mb 53f 63f
12:12 5 6 mph 1017mb 53f 63f
12:06 5 6 mph 1017.1mb 53f 62f
12:00 5
mph
1017.1mb 53f 62f
11:36 3 5 mph 1017.2mb 54f 62f
11:30 2
mph
1017.2mb 54f 60f
11:24 2 3 mph 1017.3mb 53f 58f
11:18 3
mph
1017.3mb 53f 58f
11:12 3 5 mph 1017.3mb 53f 59f
11:06 3 5 mph 1017.3mb 53f 59f
11:00 3 5 mph 1017.4mb 53f 58f
10:36 3 5 mph 1017.5mb 53f 55f
10:30 2 5 mph 1017.5mb 53f 55f
10:24 5 6 mph 1017.5mb 53f 55f
10:18 5 7 mph 1017.6mb 53f 55f
10:12 6 7 mph 1017.5mb 53f 54f
10:06 5 7 mph 1017.5mb 53f 54f
10:00 6 7 mph 1017.5mb 53f 54f
9:36 6 8 mph 1017.4mb 53f 54f
9:30 6 8 mph 1017.4mb 53f 54f
9:24 5 7 mph 1017.3mb 53f 54f
9:18 5 7 mph 1017.3mb 53f 54f
9:12 5 8 mph 1017.2mb 53f 54f
9:06 6 8 mph 1017.2mb 53f 54f
9:00 5 8 mph 1017.1mb 53f 54f
8:36 6 7 mph 1017mb 53f 54f
8:30 6 7 mph 1017.1mb 53f 54f
8:24 6 8 mph 1017.1mb 53f 54f
8:18 7 8 mph 1017mb 53f 54f
8:12 7 8 mph 1017mb 53f 54f
8:06 6 7 mph 1017mb 53f 54f
8:00 5 6 mph 1017.1mb 53f 54f
7:36 5 7 mph 1017mb 53f 54f
7:30 6 8 mph 1016.9mb 53f 54f
7:24 7 8 mph 1017mb 53f 54f
7:18 6 8 mph 1016.9mb 53f 54f
7:12 6 8 mph 1016.9mb 53f 54f
7:06 6 7 mph 1016.8mb 53f 54f
7:00 6 7 mph 1016.7mb 53f 54f
6:36 3 6 mph 1016.6mb 53f 54f
6:30 5 7 mph 1016.5mb 53f 55f
6:24 2 6 mph 1016.5mb 53f 54f
6:18 2 6 mph 1016.5mb 53f 54f
6:12 6 9 mph 1016.6mb 53f 54f
6:06 3 5 mph 1016.5mb 53f 54f
6:00 5 7 mph 1016.5mb 53f 54f
5:36 5 8 mph 1016.4mb 53f 54f
5:30 5 8 mph 1016.4mb 53f 54f
5:24 6 7 mph 1016.4mb 53f 54f
5:18 3 7 mph 1016.5mb 53f 55f
5:12 3 7 mph 1016.5mb 53f 55f
5:06 6 7 mph 1016.5mb 53f 55f
5:00 5 8 mph 1016.5mb 53f 55f
4:36 3 5 mph 1016.5mb 54f 54f
4:30 3 5 mph 1016.4mb 54f 54f
4:24 3 6 mph 1016.4mb 54f 54f
4:18 5 6 mph 1016.4mb 54f 54f
4:12 3 5 mph 1016.3mb 54f 54f
4:06 5 6 mph 1016.4mb 54f 54f
4:00 5
mph
1016.4mb 54f 54f
3:36 5 7 mph 1016.4mb 54f 54f
3:30 6 7 mph 1016.4mb 54f 55f
3:24 6 8 mph 1016.4mb 54f 54f
3:18 5 7 mph 1016.4mb 54f 54f
3:12 6 8 mph 1016.4mb 54f 54f
3:06 6 8 mph 1016.4mb 54f 55f
3:00 6 8 mph 1016.5mb 54f 55f
2:36 5 7 mph 1016.5mb 54f 55f
2:30 5 8 mph 1016.5mb 54f 55f
2:24 7 13 mph 1016.5mb 54f 55f
2:18 7 13 mph 1016.5mb 54f 55f
2:12 7 11 mph 1016.5mb 54f 55f
2:06 8 11 mph 1016.5mb 54f 55f
2:00 7 14 mph 1016.4mb 54f 55f
1:36 7 10 mph 1016.3mb 54f 55f
1:30 3 7 mph 1016.3mb 54f 55f
1:24 5 10 mph 1016.3mb 54f 55f
1:18 5 8 mph 1016.2mb 54f 55f
1:12 5 8 mph 1016.2mb 54f 55f
1:06 5 10 mph 1016.2mb 54f 55f
1:00 6 10 mph 1016.2mb 54f 55f
12:54 8 13 mph 1016.1mb 54f 55f
12:48 9 14 mph 1016.1mb 54f 55f
12:36 6 11 mph 1016.1mb 54f 55f
12:30 7 14 mph 1016mb 54f 55f
12:24 9 13 mph 1015.9mb 54f 55f
12:18 8 11 mph 1015.9mb 54f 55f
12:12 6 11 mph 1015.9mb 54f 55f
12:06 6 9 mph 1015.9mb 54f 55f
12:00 7 11 mph 1015.8mb 54f 55f
mer. 08/20 11:54 7 10 mph 1015.8mb 54f 55f
11:48 9 11 mph 1015.8mb 54f 55f
11:36 7 13 mph 1015.8mb 54f 56f
11:30 9 11 mph 1015.8mb 54f 56f
11:24 9 11 mph 1015.8mb 54f 56f
11:18 9 11 mph 1015.7mb 54f 56f
11:12 9 11 mph 1015.6mb 54f 56f
11:06 7 10 mph 1015.6mb 54f 56f
11:00 7 11 mph 1015.5mb 54f 56f
10:54 9 13 mph 1015.5mb 54f 56f
10:48 9 11 mph 1015.4mb 54f 57f
10:36 9 14 mph 1015.4mb 54f 57f
10:30 8 11 mph 1015.4mb 54f 57f
10:24 7 10 mph 1015.4mb 54f 57f
10:18 6 10 mph 1015.4mb 54f 58f
10:12 8 13 mph 1015.4mb 54f 58f
10:06 10 15 mph 1015.3mb 54f 58f
10:00 10 15 mph 1015.3mb 54f 58f
9:54 11 15 mph 1015.3mb 54f 58f
9:48 9 14 mph 1015.3mb 54f 58f
9:36 7 9 mph 1015.3mb 54f 58f
9:30 6 8 mph 1015.3mb 54f 59f
9:24 5 9 mph 1015.3mb 53f 59f
9:18 3 8 mph 1015.3mb 53f 59f
9:12 2 10 mph 1015.2mb 53f 59f
9:06 2 5 mph 1015.2mb 53f 59f
9:00 6 8 mph 1015.2mb 53f 59f
8:54 2 7 mph 1015.1mb 53f 59f
8:48 6 9 mph 1015.1mb 53f 59f
8:36 7 8 mph 1015mb 53f 57f
8:30 7 9 mph 1015mb 53f 58f
8:24 7 8 mph 1014.9mb 53f 57f
8:18 6 7 mph 1014.9mb 53f 56f
8:12 6 7 mph 1014.8mb 53f 56f
8:06 6 8 mph 1014.7mb 53f 57f
8:00 7 9 mph 1014.7mb 53f 57f
7:54 8 9 mph 1014.7mb 53f 57f
7:48 7 10 mph 1014.7mb 53f 57f
7:36 9 11 mph 1014.7mb 53f 57f
7:30 9 13 mph 1014.7mb 53f 57f
7:24 11 14 mph 1014.7mb 53f 57f
7:18 13 14 mph 1014.6mb 53f 56f
7:12 11 13 mph 1014.6mb 53f 57f
7:06 10 14 mph 1014.6mb 53f 57f
7:00 13 15 mph 1014.6mb 53f 57f
6:54 13 15 mph 1014.6mb 53f 57f
6:48 14 18 mph 1014.6mb 53f 57f
6:36 16 20 mph 1014.5mb 53f 57f
6:30 13 15 mph 1014.6mb 53f 59f
6:24 14 15 mph 1014.6mb 53f 58f
6:18 13 14 mph 1014.7mb 53f 58f
6:12 13 15 mph 1014.7mb 53f 58f
6:06 13 14 mph 1014.7mb 53f 58f
6:00 13 15 mph 1014.7mb 53f 58f
5:54 11 15 mph 1014.7mb 53f 58f
5:48 6 7 mph 1014.7mb 53f 59f
5:36 6 7 mph 1014.6mb 53f 60f
5:30 3 5 mph 1014.6mb 53f 61f
5:24 2 3 mph 1014.7mb 53f 62f
5:18 1 2 mph 1014.7mb 53f 62f
5:12 2
mph
1014.7mb 53f 61f
5:06 2
mph
1014.8mb 53f 63f
5:00 2 3 mph 1014.7mb 53f 66f
4:54 2 3 mph 1014.7mb 53f 63f
4:48 3 5 mph 1014.7mb 53f 61f
4:36 3 5 mph 1014.7mb 53f 61f
4:30 3 5 mph 1014.7mb 52f 62f
4:24 3 5 mph 1014.7mb 52f 62f
4:18 5
mph
1014.8mb 52f 62f
4:12 3 5 mph 1014.8mb 52f 63f
4:06 3 5 mph 1014.7mb 52f 63f
4:00 5
mph
1014.7mb 52f 60f
3:54 5
mph
1014.8mb 52f 61f
3:48 5
mph
1014.9mb 52f 63f
3:36 2 5 mph 1014.9mb 52f 64f
3:30 2 3 mph 1014.9mb 52f 65f
3:24 2
mph
1014.9mb 52f 66f
3:18 2 3 mph 1014.9mb 52f 67f
3:12 3
mph
1014.9mb 52f 66f
3:06 3
mph
1014.9mb 52f 64f
3:00 3 5 mph 1014.8mb 52f 64f
2:54 2 5 mph 1014.8mb 52f 63f
2:48 2 3 mph 1014.8mb 52f 63f
2:36 2 3 mph 1014.8mb 52f 62f
2:30 2 3 mph 1014.8mb 52f 64f
2:24 2
mph
1014.9mb 52f 62f
2:18 1 2 mph 1015mb 52f 62f
2:12 2 3 mph 1014.9mb 52f 63f
2:06 2 3 mph 1015mb 52f 62f
2:00 3
mph
1015mb 52f 62f
1:54 1 3 mph 1015mb 52f 62f
1:48 3 5 mph 1015mb 52f 60f
1:36 3
mph
1015mb 52f 60f
1:30 2 3 mph 1014.9mb 52f 61f
1:24 2 5 mph 1014.9mb 52f 63f
1:18 5 6 mph 1014.9mb 52f 61f
1:12 5 6 mph 1014.8mb 52f 60f
1:06 5 7 mph 1014.8mb 52f 60f
1:00 6 8 mph 1014.8mb 52f 64f
12:54 5 8 mph 1014.8mb 52f 64f
12:48 7 8 mph 1014.8mb 52f 64f
12:36 7 8 mph 1014.8mb 52f 64f
12:30 7 8 mph 1014.8mb 52f 64f
12:24 6 8 mph 1014.8mb 52f 65f
12:18 3 7 mph 1014.8mb 52f 64f
12:12 3 6 mph 1014.8mb 52f 63f
12:06 3 6 mph 1014.8mb 52f 62f
12:00 3 5 mph 1014.7mb 52f 63f
11:54 3 6 mph 1014.7mb 52f 61f
11:48 5 6 mph 1014.6mb 52f 61f
11:36 5 6 mph 1014.5mb 52f 59f
11:30 5 6 mph 1014.4mb 52f 60f
11:24 3 6 mph 1014.4mb 52f 60f
11:18 3 6 mph 1014.4mb 52f 62f
11:12 3 6 mph 1014.4mb 52f 62f
11:06 5 7 mph 1014.3mb 52f 61f
11:00 7 8 mph 1014.3mb 52f 60f
10:54 6 8 mph 1014.2mb 52f 61f
10:48 5 6 mph 1014.2mb 52f 60f
10:36 6 7 mph 1014.2mb 52f 60f
10:30 3 6 mph 1014.2mb 52f 60f
10:24 2 3 mph 1014.2mb 52f 59f
10:18 1 2 mph 1014.3mb 52f 59f
10:12 2 3 mph 1014.2mb 52f 59f
10:06 2 3 mph 1014.3mb 52f 59f
10:00 3 5 mph 1014.1mb 52f 58f
9:54 2 5 mph 1014.1mb 52f 58f
9:48 3 5 mph 1014mb 52f 57f
9:36 1 2 mph 1013.9mb 52f 58f
9:30 1 3 mph 1013.9mb 52f 58f
9:24 2 3 mph 1013.9mb 52f 58f
9:18 1 2 mph 1013.9mb 52f 59f
9:12 2
mph
1013.8mb 52f 58f
9:06  -  2 mph 1013.7mb 52f 59f
9:00 2
mph
1013.7mb 52f 58f
8:54 2 5 mph 1013.6mb 52f 58f
8:48 5 6 mph 1013.5mb 52f 57f
8:36 6 7 mph 1013.5mb 52f 58f
8:30 3 5 mph 1013.6mb 52f 57f
8:24 5 6 mph 1013.6mb 52f 57f
8:18 6 7 mph 1013.5mb 52f 58f
8:12 5 6 mph 1013.4mb 52f 57f
8:06 2 5 mph 1013.2mb 52f 58f
8:00 3 5 mph 1013.1mb 52f 58f
7:54 3 5 mph 1013mb 52f 58f
7:48 2 3 mph 1013mb 52f 58f
7:36 1 3 mph 1012.9mb 52f 57f
7:30 2 6 mph 1012.9mb 52f 57f
7:24 3 5 mph 1012.9mb 52f 56f
7:18 2 3 mph 1012.9mb 52f 56f
7:12 3
mph
1012.8mb 52f 56f
7:06 2
mph
1012.8mb 52f 56f
7:00 1 2 mph 1012.8mb 52f 55f
6:54 1 2 mph 1012.7mb 52f 55f
6:48  -  2 mph 1012.7mb 52f 55f
6:36 3 5 mph 1012.5mb 52f 55f
6:30 5 6 mph 1012.5mb 52f 55f
6:24 5 6 mph 1012.4mb 52f 55f
6:18 3 6 mph 1012.5mb 52f 55f
6:12 5 7 mph 1012.4mb 52f 56f
6:06 6 8 mph 1012.5mb 52f 56f
6:00 7 10 mph 1012.3mb 52f 56f
5:54 7 10 mph 1012.3mb 52f 56f
5:48 5 7 mph 1012.2mb 52f 56f
5:36 2 3 mph 1012mb 52f 56f
5:30 2 7 mph 1011.9mb 52f 56f
5:24 3 7 mph 1011.8mb 52f 56f
5:18 2 7 mph 1011.7mb 52f 56f
5:12 5 10 mph 1011.7mb 52f 56f
5:06 6 10 mph 1011.6mb 52f 56f
5:00 5 9 mph 1011.6mb 52f 56f
4:54 6 11 mph 1011.5mb 52f 56f
4:48 6 10 mph 1011.5mb 52f 56f
4:36 7 11 mph 1011.5mb 52f 56f
4:30 9 13 mph 1011.4mb 52f 56f
4:24 6 13 mph 1011.5mb 52f 56f
4:18 7 13 mph 1011.5mb 52f 56f
4:12 6 11 mph 1011.5mb 52f 56f
4:06 7 10 mph 1011.5mb 52f 56f
4:00 6 8 mph 1011.5mb 52f 56f
3:54 3 8 mph 1011.4mb 52f 56f
3:48 3 11 mph 1011.3mb 52f 56f
3:36 5 8 mph 1011.3mb 52f 56f
3:30 5 10 mph 1011.2mb 52f 56f
3:24 6 9 mph 1011.3mb 52f 56f
3:18 5 9 mph 1011.2mb 52f 56f
3:12 5 9 mph 1011.2mb 52f 56f
3:06 6 11 mph 1011.2mb 52f 56f
3:00 7 11 mph 1011.2mb 52f 56f
2:54 9 10 mph 1011.1mb 52f 56f
2:48 8 10 mph 1011.1mb 52f 56f
2:36 7 11 mph 1011.1mb 52f 56f
2:30 7 15 mph 1011mb 52f 56f
2:24 9 11 mph 1011mb 52f 56f
2:18 7 10 mph 1011mb 52f 56f
2:12 6 10 mph 1010.9mb 52f 56f
2:06 5 8 mph 1010.8mb 52f 56f
2:00 5 9 mph 1010.7mb 52f 56f
1:54 5 7 mph 1010.8mb 52f 56f
1:48 5 9 mph 1010.7mb 52f 56f
1:36 5 9 mph 1010.8mb 52f 56f
1:30 6 10 mph 1010.8mb 52f 56f
1:24 8 13 mph 1010.8mb 52f 56f
1:18 6 8 mph 1010.8mb 52f 56f
1:12 6 10 mph 1010.8mb 52f 56f
1:06 6 11 mph 1010.8mb 52f 56f
1:00 6 14 mph 1010.8mb 52f 56f
12:54 8 13 mph 1010.7mb 52f 56f
12:48 7 14 mph 1010.5mb 52f 56f
12:36 7 13 mph 1010.6mb 52f 56f
12:30 6 13 mph 1010.6mb 52f 56f
12:24 7 14 mph 1010.5mb 52f 56f
12:18 3 13 mph 1010.4mb 52f 56f
12:12 6 14 mph 1010.3mb 52f 56f
12:06 8 14 mph 1010.3mb 52f 56f
12:00 7 10 mph 1010.2mb 52f 56f
mar. 08/19 11:54 7 13 mph 1010.2mb 52f 56f
11:48 7 14 mph 1010.1mb 52f 56f
11:36 9 15 mph 1010.1mb 52f 56f
11:30 10 17 mph 1010mb 52f 56f
11:24 15 18 mph 1009.9mb 52f 57f
11:18 13 17 mph 1009.9mb 53f 56f
11:12 10 14 mph 1009.8mb 53f 57f
11:06 10 16 mph 1009.9mb 53f 57f
11:00 11 16 mph 1009.9mb 53f 57f
10:54 14 20 mph 1009.8mb 52f 57f
10:48 14 21 mph 1009.8mb 52f 57f
10:36 14 22 mph 1009.9mb 52f 57f
10:30 15 21 mph 1009.9mb 52f 57f
10:24 17 24 mph 1009.9mb 52f 57f
10:18 16 23 mph 1009.9mb 52f 57f
10:12 15 22 mph 1009.9mb 51f 57f
10:06 10 16 mph 1009.9mb 51f 57f
10:00 14 18 mph 1009.9mb 51f 57f
9:54 16 23 mph 1009.9mb 51f 58f
9:48 18 24 mph 1009.9mb 51f 58f
9:36 16 26 mph 1009.8mb 51f 58f
9:30 20 25 mph 1009.7mb 51f 58f
9:24 17 24 mph 1009.8mb 50f 58f
9:18 17 22 mph 1009.7mb 50f 58f
9:12 17 24 mph 1009.8mb 50f 58f
9:06 18 26 mph 1009.7mb 50f 58f
9:00 17 22 mph 1009.7mb 50f 58f
8:54 16 22 mph 1009.7mb 50f 59f
8:48 15 22 mph 1009.7mb 51f 59f
8:36 13 18 mph 1009.7mb 51f 59f
8:30 11 15 mph 1009.6mb 50f 60f
8:24 11 18 mph 1009.6mb 50f 60f
8:18 15 17 mph 1009.6mb 50f 60f
8:12 14 20 mph 1009.6mb 50f 60f
8:06 14 18 mph 1009.6mb 50f 60f
8:00 10 14 mph 1009.5mb 50f 60f
7:54 6 14 mph 1009.5mb 50f 61f
7:48 7 13 mph 1009.4mb 50f 61f
7:36 9 16 mph 1009.4mb 50f 62f
7:30 13 21 mph 1009.4mb 51f 62f
7:24 13 18 mph 1009.4mb 51f 62f
7:18 11 18 mph 1009.4mb 51f 62f
7:12 11 17 mph 1009.4mb 51f 62f
7:06 13 18 mph 1009.5mb 51f 62f
7:00 14 20 mph 1009.5mb 51f 62f
6:54 17 22 mph 1009.4mb 51f 62f
6:48 18 24 mph 1009.3mb 52f 61f
6:36 20 25 mph 1009.4mb 52f 62f
6:30 15 21 mph 1009.4mb 52f 62f
6:24 14 18 mph 1009.6mb 53f 63f
6:18 18 23 mph 1009.6mb 53f 63f
6:12 13 18 mph 1009.7mb 53f 64f
6:06 20 25 mph 1009.6mb 53f 64f
6:00 14 22 mph 1009.5mb 53f 65f
5:54 16 22 mph 1009.4mb 53f 64f
5:48 13 24 mph 1009.5mb 53f 64f
5:36 16 24 mph 1009.5mb 53f 65f
5:30 17 28 mph 1009.5mb 53f 65f
5:24 15 20 mph 1009.4mb 53f 65f
5:18 18 22 mph 1009.5mb 53f 65f
5:12 21 25 mph 1009.4mb 53f 65f
5:06 18 25 mph 1009.4mb 53f 65f
5:00 20 25 mph 1009.3mb 53f 65f
4:54 16 23 mph 1009.4mb 53f 66f
4:48 16 22 mph 1009.3mb 53f 65f
4:36 16 24 mph 1009.3mb 53f 66f
4:30 20 26 mph 1009.4mb 53f 67f
4:24 16 25 mph 1009.4mb 53f 67f
4:18 16 24 mph 1009.5mb 53f 66f
4:12 14 26 mph 1009.5mb 53f 65f
4:06 14 25 mph 1009.5mb 53f 65f
4:00 16 24 mph 1009.6mb 53f 63f
3:54 20 24 mph 1009.6mb 53f 61f
3:48 21 26 mph 1009.5mb 53f 60f
3:36 18 23 mph 1009.4mb 53f 60f
3:30 20 30 mph 1009.5mb 53f 59f
3:24 24 31 mph 1009.6mb 53f 59f
3:18 22 26 mph 1009.6mb 53f 59f
3:12 18 24 mph 1009.7mb 53f 59f
3:06 18 23 mph 1009.7mb 53f 59f
3:00 17 22 mph 1009.7mb 53f 59f
2:54 17 24 mph 1009.7mb 53f 58f
2:48 16 23 mph 1009.7mb 53f 58f
2:36 17 22 mph 1009.8mb 53f 59f
2:30 17 24 mph 1009.9mb 53f 58f
2:24 18 26 mph 1009.8mb 53f 58f
2:18 20 23 mph 1009.9mb 53f 57f
2:12 20 23 mph 1009.9mb 53f 57f
2:06 18 23 mph 1009.9mb 53f 57f
2:00 17 22 mph 1010.1mb 53f 58f
1:54 18 22 mph 1010.1mb 53f 57f
1:48 18 23 mph 1010.1mb 53f 58f
1:36 18 22 mph 1010.1mb 53f 58f
1:30 17 22 mph 1010.2mb 53f 58f
1:24 17 21 mph 1010.2mb 53f 58f
1:18 17 22 mph 1010.3mb 53f 58f
1:12 17 22 mph 1010.3mb 53f 57f
1:06 17 22 mph 1010.4mb 53f 56f
1:00 18 23 mph 1010.4mb 53f 56f
12:54 20 24 mph 1010.3mb 53f 56f
12:48 21 25 mph 1010.4mb 53f 56f
12:36 18 23 mph 1010.4mb 53f 57f
12:30 18 23 mph 1010.4mb 53f 56f
12:24 17 22 mph 1010.4mb 53f 56f
12:18 20 22 mph 1010.4mb 53f 56f
12:12 18 21 mph 1010.5mb 53f 56f
12:06 16 20 mph 1010.5mb 53f 56f
12:00 17 21 mph 1010.5mb 53f 56f
11:54 18 22 mph 1010.5mb 53f 56f
11:48 18 22 mph 1010.5mb 53f 56f
11:36 17 20 mph 1010.5mb 53f 55f
11:30 16 20 mph 1010.5mb 53f 55f
11:24 16 20 mph 1010.5mb 52f 55f
11:18 16 18 mph 1010.4mb 52f 55f
11:12 14 17 mph 1010.4mb 53f 55f
11:06 16 20 mph 1010.5mb 53f 55f
11:00 16 22 mph 1010.5mb 53f 55f
10:54 18 21 mph 1010.5mb 53f 56f
10:48 18 21 mph 1010.5mb 53f 57f
10:36 17 22 mph 1010.5mb 53f 57f
10:30 17 20 mph 1010.5mb 53f 57f
10:24 15 17 mph 1010.5mb 53f 57f
10:18 14 16 mph 1010.5mb 53f 57f
10:12 14 16 mph 1010.5mb 53f 57f
10:06 15 21 mph 1010.5mb 53f 57f
10:00 16 21 mph 1010.4mb 53f 56f
9:54 15 20 mph 1010.4mb 53f 56f
9:48 16 18 mph 1010.3mb 53f 56f
9:36 13 14 mph 1010.3mb 53f 56f
9:30 10 14 mph 1010.3mb 53f 56f
9:24 13 14 mph 1010.3mb 53f 56f
9:18 11 14 mph 1010.4mb 53f 56f
9:12 14 17 mph 1010.4mb 53f 56f
9:06 14 16 mph 1010.4mb 53f 56f
9:00 14 17 mph 1010.3mb 53f 56f
8:54 16 18 mph 1010.3mb 53f 55f
8:48 16 17 mph 1010.2mb 53f 56f
8:36 13 14 mph 1010.1mb 53f 57f
8:30 11 14 mph 1010.1mb 53f 56f
8:24 7 11 mph 1010.1mb 53f 57f
8:18 7 8 mph 1010.2mb 53f 57f
8:12 6 7 mph 1010.1mb 53f 58f
8:06 5 6 mph 1010.1mb 53f 60f
8:00 2 5 mph 1010.1mb 53f 61f
7:54 2 3 mph 1010.1mb 53f 60f
7:48 2 3 mph 1010.2mb 53f 60f
7:36  -  1 mph 1010.1mb 53f 61f
7:30  -  1 mph 1010.1mb 53f 60f
7:24 1 2 mph 1009.9mb 53f 59f
7:18 2
mph
1009.9mb 53f 59f
7:12 2 3 mph 1009.9mb 53f 58f
7:06 2
mph
1009.8mb 53f 58f
7:00  -  1 mph 1009.8mb 53f 58f
6:54  -  2 mph 1009.8mb 53f 58f
6:48 1 3 mph 1009.8mb 53f 57f
6:36 1
mph
1009.9mb 53f 58f
6:30 1 3 mph 1009.9mb 53f 58f
6:24 2 3 mph 1009.9mb 53f 58f
6:18 2 3 mph 1009.9mb 53f 58f
6:12 1 2 mph 1010mb 53f 58f
6:06 2 3 mph 1009.9mb 53f 58f
6:00 1 2 mph 1010mb 53f 57f
5:54  -  1 mph 1009.9mb 53f 58f
5:48 2 3 mph 1009.9mb 53f 58f
5:36 3
mph
1009.8mb 53f 58f
5:30 2 3 mph 1009.8mb 53f 58f
5:24 2 3 mph 1009.8mb 53f 58f
5:18 1 3 mph 1009.8mb 53f 58f
5:12 2 5 mph 1009.8mb 53f 57f
5:06 5 7 mph 1009.7mb 53f 56f
5:00 6
mph
1009.6mb 53f 55f
4:54 6
mph
1009.6mb 53f 56f
4:48 2 3 mph 1009.6mb 53f 59f
4:36 1 2 mph 1009.7mb 53f 60f
4:30  -  3 mph 1009.8mb 53f 60f
4:24 3 7 mph 1009.9mb 53f 60f
4:18 5 6 mph 1010mb 53f 59f
4:12 3 5 mph 1010.1mb 53f 59f
4:06 2 3 mph 1010mb 53f 59f
4:00 3 6 mph 1010mb 53f 59f
3:54 2 10 mph 1010mb 53f 57f
3:48 6 11 mph 1009.9mb 53f 57f
3:36 2 5 mph 1009.8mb 53f 58f
3:30 2 3 mph 1009.7mb 53f 60f
3:24 1 2 mph 1009.8mb 53f 60f
3:18 2 3 mph 1009.9mb 53f 60f
3:12 3 6 mph 1009.9mb 53f 59f
3:06 2 5 mph 1010mb 53f 59f
3:00 2 6 mph 1010mb 53f 57f
2:54 2 6 mph 1010mb 53f 58f
2:48 5 8 mph 1010mb 53f 59f
2:36 9 13 mph 1010mb 53f 60f
2:30 7 13 mph 1009.9mb 53f 58f
2:24 6
mph
1009.8mb 53f 57f
2:18 3 5 mph 1009.7mb 53f 56f
2:12 1 2 mph 1009.7mb 53f 57f
2:06 1 3 mph 1009.6mb 53f 57f
2:00 3 6 mph 1009.6mb 53f 57f
1:54 5 6 mph 1009.5mb 53f 57f
1:48 5
mph
1009.6mb 53f 57f
1:36 2 5 mph 1009.8mb 53f 57f
1:30 2 5 mph 1009.9mb 53f 57f
1:24 3 6 mph 1009.9mb 53f 58f
1:18 2 5 mph 1009.9mb 53f 59f
1:12 5 6 mph 1010mb 53f 58f
1:06 6 9 mph 1010.1mb 53f 58f
1:00 7 8 mph 1010.2mb 53f 58f
12:54 7 9 mph 1010.3mb 53f 58f
12:48 7 8 mph 1010.4mb 53f 59f
12:36 3 5 mph 1010.2mb 53f 58f
12:30 2 5 mph 1010.2mb 53f 58f
12:24 7 11 mph 1010.2mb 53f 57f
12:18 8 10 mph 1010.2mb 53f 56f
12:12 7 9 mph 1010.1mb 53f 56f
12:06 8 9 mph 1010.1mb 53f 56f
12:00 7 10 mph 1010mb 53f 58f
lun. 08/18 11:54 5 7 mph 1010.1mb 53f 58f
11:48 2 8 mph 1010mb 53f 59f
11:36 11 16 mph 1010.3mb 54f 58f
11:30 13 17 mph 1010.5mb 54f 58f
11:24 6 13 mph 1010.4mb 54f 63f
11:18 6 9 mph 1010.6mb 54f 62f
11:12 5 15 mph 1010.9mb 54f 59f
11:06 17 25 mph 1011.1mb 54f 59f
11:00 18 22 mph 1011mb 54f 58f
10:54 16 21 mph 1010.9mb 54f 59f
10:48 10 13 mph 1010.8mb 54f 59f
10:36 2 3 mph 1010.4mb 54f 63f
10:30  -  2 mph 1010.5mb 54f 63f
10:24 2 5 mph 1010.5mb 54f 63f
10:18 6 9 mph 1010.7mb 54f 63f
10:12 7 9 mph 1010.6mb 53f 62f
10:06 6 8 mph 1010.9mb 53f 62f
10:00 6 7 mph 1010.9mb 53f 62f
9:54 5 6 mph 1011mb 53f 62f
9:48 3 6 mph 1011.2mb 53f 60f
9:36 9 14 mph 1011.3mb 53f 58f
9:30 14 18 mph 1011.5mb 53f 59f
9:24 15 17 mph 1011.4mb 53f 59f
9:18 10 13 mph 1011.5mb 53f 58f
9:12 3 6 mph 1011.5mb 53f 60f
9:06 1 3 mph 1011.6mb 52f 59f
9:00 2 5 mph 1011.6mb 52f 59f
8:54 2 3 mph 1011.5mb 52f 59f
8:48 1 3 mph 1011.5mb 52f 59f
8:36 2 3 mph 1011.5mb 52f 58f
8:30 2 3 mph 1011.6mb 52f 59f
8:24 1 2 mph 1011.6mb 52f 59f
8:18 1 2 mph 1011.6mb 52f 59f
8:12  -  3 mph 1011.7mb 52f 59f
8:06 3 6 mph 1011.7mb 52f 60f
8:00 2 3 mph 1011.6mb 52f 63f
7:54 2 5 mph 1011.7mb 52f 63f
7:48 2 3 mph 1011.7mb 52f 63f
7:36 2 3 mph 1011.9mb 52f 61f
7:30 5 10 mph 1011.9mb 52f 59f
7:24 8 11 mph 1012.1mb 52f 62f
7:18 5 7 mph 1012.1mb 52f 62f
7:12 6 8 mph 1012.1mb 52f 59f
7:06 8 10 mph 1012.2mb 52f 60f
7:00 8 10 mph 1012.2mb 52f 60f
6:54 7
mph
1012.2mb 53f 60f
6:48 3 8 mph 1012.2mb 53f 59f
6:36 6 9 mph 1012.4mb 53f 59f
6:30 6 8 mph 1012.4mb 53f 60f
6:24 8 11 mph 1012.5mb 52f 60f
6:18 11 15 mph 1012.6mb 52f 58f
6:12 14 15 mph 1012.7mb 52f 58f
6:06 11 15 mph 1012.7mb 52f 59f
6:00 11 17 mph 1012.7mb 52f 59f
5:54 14 17 mph 1012.7mb 52f 58f
5:48 15 17 mph 1012.8mb 52f 58f
5:36 10 14 mph 1012.8mb 52f 59f
5:30 13 15 mph 1013mb 52f 58f
5:24 14 16 mph 1013.1mb 53f 58f
5:18 14 16 mph 1013.1mb 53f 58f
5:12 14 16 mph 1013.2mb 53f 58f
5:06 10 13 mph 1013.3mb 54f 59f
5:00 10 15 mph 1013.4mb 54f 58f
4:54 14 16 mph 1013.4mb 54f 58f
4:48 13 15 mph 1013.5mb 54f 58f
4:36 8 11 mph 1013.5mb 54f 58f
4:30 9 11 mph 1013.5mb 54f 57f
4:24 9
mph
1013.4mb 54f 58f
4:18 5 6 mph 1013.5mb 54f 58f
4:12 3 5 mph 1013.5mb 54f 59f
4:06 6 7 mph 1013.5mb 54f 58f
4:00 6 9 mph 1013.6mb 53f 58f
3:54 9 10 mph 1013.6mb 53f 58f
3:48 8 9 mph 1013.7mb 53f 59f
3:36 7 10 mph 1013.6mb 53f 60f
3:30 10 11 mph 1013.7mb 53f 58f
3:24 13 15 mph 1013.8mb 53f 57f
3:18 14 16 mph 1013.8mb 53f 57f
3:12 16 18 mph 1013.8mb 53f 57f
3:06 16 21 mph 1013.8mb 53f 57f
3:00 15 17 mph 1013.9mb 53f 57f
2:54 16 20 mph 1013.9mb 53f 57f
2:48 16 20 mph 1014mb 53f 57f
2:36 14 17 mph 1014.1mb 53f 58f
2:30 13 14 mph 1014.1mb 53f 58f
2:24 8 10 mph 1014.1mb 53f 60f
2:18 3 8 mph 1014.2mb 53f 61f
2:12 7 9 mph 1014.2mb 53f 59f
2:06 8 13 mph 1014.3mb 53f 59f
2:00 9 14 mph 1014.4mb 53f 62f
1:54 2 3 mph 1014.3mb 53f 66f
1:48 2
mph
1014.2mb 53f 69f
1:36 2 3 mph 1014.2mb 53f 69f
1:30 3
mph
1014.3mb 53f 66f
1:24 3
mph
1014.3mb 53f 66f
1:18 2
mph
1014.4mb 53f 68f
1:12 2
mph
1014.5mb 53f 66f
1:06 2 3 mph 1014.6mb 53f 66f
1:00 3
mph
1014.6mb 53f 67f
12:54 3 5 mph 1014.6mb 53f 66f
12:48 3 5 mph 1014.6mb 53f 66f
12:36 5
mph
1014.7mb 52f 68f
12:30 3 5 mph 1014.8mb 52f 65f
12:24 3
mph
1014.8mb 53f 67f
12:18 2 3 mph 1015mb 53f 68f
12:12 2 5 mph 1015.1mb 52f 69f
12:06 2 5 mph 1015.1mb 52f 70f
12:00 5 6 mph 1015.2mb 52f 69f
11:54 5 6 mph 1015.4mb 52f 70f
11:48 3 5 mph 1015.5mb 52f 69f
11:36 5 6 mph 1015.6mb 52f 66f
11:30 3
mph
1015.6mb 53f 66f
11:24 2 3 mph 1015.7mb 53f 66f
11:18  -  2 mph 1015.7mb 53f 61f
11:12  -  2 mph 1015.8mb 53f 62f
11:06  -  2 mph 1015.9mb 53f 62f
11:00 1 2 mph 1016mb 53f 60f
10:54 1 3 mph 1016mb 53f 60f
10:48 2 3 mph 1016mb 53f 61f
10:36 3 5 mph 1016mb 53f 61f
10:30 5 6 mph 1016mb 53f 62f
10:24 3 5 mph 1016.1mb 53f 62f
10:18 3 5 mph 1016.2mb 53f 61f
10:12 3 5 mph 1016.2mb 53f 59f
10:06 3 5 mph 1016.2mb 53f 59f
10:00 5
mph
1016.2mb 53f 61f
9:54 5
mph
1016.2mb 53f 60f
9:48 2 5 mph 1016.2mb 53f 62f
9:36 3 5 mph 1016.3mb 53f 60f
9:30 5 6 mph 1016.3mb 53f 60f
9:24 5 6 mph 1016.4mb 53f 60f
9:18 5
mph
1016.4mb 53f 61f
9:12 2
mph
1016.5mb 53f 60f
9:06  -  2 mph 1016.6mb 53f 58f
9:00 1 3 mph 1016.7mb 53f 56f
8:54 3 5 mph 1016.8mb 53f 55f
8:48 3 6 mph 1016.8mb 53f 55f
8:36 8 10 mph 1016.9mb 53f 54f
8:30 8 10 mph 1017mb 53f 54f
8:24 9 10 mph 1017mb 53f 54f
8:18 9 10 mph 1017mb 53f 54f